sensor_id;sensor_type;location;lat;lon;timestamp;P1;durP1;ratioP1;P2;durP2;ratioP2
66256;SDS011;53049;43.446;3.698;2023-08-06T00:01:48;2.53;;;1.60;;
66256;SDS011;53049;43.446;3.698;2023-08-06T00:04:14;4.55;;;1.50;;
66256;SDS011;53049;43.446;3.698;2023-08-06T00:06:40;3.15;;;1.58;;
66256;SDS011;53049;43.446;3.698;2023-08-06T00:09:06;3.67;;;1.77;;
66256;SDS011;53049;43.446;3.698;2023-08-06T00:11:31;4.50;;;1.60;;
66256;SDS011;53049;43.446;3.698;2023-08-06T00:13:57;3.85;;;1.77;;
66256;SDS011;53049;43.446;3.698;2023-08-06T00:16:22;6.68;;;1.70;;
66256;SDS011;53049;43.446;3.698;2023-08-06T00:18:48;4.38;;;2.03;;
66256;SDS011;53049;43.446;3.698;2023-08-06T00:21:14;6.13;;;1.80;;
66256;SDS011;53049;43.446;3.698;2023-08-06T00:23:40;6.30;;;1.70;;
66256;SDS011;53049;43.446;3.698;2023-08-06T00:26:06;4.13;;;1.77;;
66256;SDS011;53049;43.446;3.698;2023-08-06T00:28:31;3.25;;;1.58;;
66256;SDS011;53049;43.446;3.698;2023-08-06T00:30:57;2.35;;;1.60;;
66256;SDS011;53049;43.446;3.698;2023-08-06T00:33:23;3.58;;;1.77;;
66256;SDS011;53049;43.446;3.698;2023-08-06T00:35:49;6.10;;;1.60;;
66256;SDS011;53049;43.446;3.698;2023-08-06T00:38:15;3.22;;;1.80;;
66256;SDS011;53049;43.446;3.698;2023-08-06T00:40:40;4.30;;;1.40;;
66256;SDS011;53049;43.446;3.698;2023-08-06T00:43:06;3.92;;;1.90;;
66256;SDS011;53049;43.446;3.698;2023-08-06T00:45:35;2.35;;;1.40;;
66256;SDS011;53049;43.446;3.698;2023-08-06T00:48:02;1.58;;;1.38;;
66256;SDS011;53049;43.446;3.698;2023-08-06T00:50:29;2.58;;;1.50;;
66256;SDS011;53049;43.446;3.698;2023-08-06T00:52:55;2.40;;;1.50;;
66256;SDS011;53049;43.446;3.698;2023-08-06T00:55:21;5.40;;;1.70;;
66256;SDS011;53049;43.446;3.698;2023-08-06T00:57:47;3.35;;;1.50;;
66256;SDS011;53049;43.446;3.698;2023-08-06T01:00:13;2.38;;;1.38;;
66256;SDS011;53049;43.446;3.698;2023-08-06T01:02:38;3.83;;;1.60;;
66256;SDS011;53049;43.446;3.698;2023-08-06T01:05:04;2.15;;;1.40;;
66256;SDS011;53049;43.446;3.698;2023-08-06T01:10:11;4.13;;;1.80;;
66256;SDS011;53049;43.446;3.698;2023-08-06T01:13:16;3.50;;;1.58;;
66256;SDS011;53049;43.446;3.698;2023-08-06T01:16:22;1.95;;;1.33;;
66256;SDS011;53049;43.446;3.698;2023-08-06T01:18:50;1.90;;;1.45;;
66256;SDS011;53049;43.446;3.698;2023-08-06T01:21:16;2.70;;;1.60;;
66256;SDS011;53049;43.446;3.698;2023-08-06T01:23:42;2.50;;;1.85;;
66256;SDS011;53049;43.446;3.698;2023-08-06T01:26:15;3.05;;;1.40;;
66256;SDS011;53049;43.446;3.698;2023-08-06T01:31:31;2.53;;;1.58;;
66256;SDS011;53049;43.446;3.698;2023-08-06T01:34:00;5.95;;;1.60;;
66256;SDS011;53049;43.446;3.698;2023-08-06T01:36:26;3.00;;;1.63;;
66256;SDS011;53049;43.446;3.698;2023-08-06T01:38:53;5.32;;;2.00;;
66256;SDS011;53049;43.446;3.698;2023-08-06T01:41:19;4.38;;;2.08;;
66256;SDS011;53049;43.446;3.698;2023-08-06T01:43:45;3.78;;;1.75;;
66256;SDS011;53049;43.446;3.698;2023-08-06T01:46:11;4.90;;;2.20;;
66256;SDS011;53049;43.446;3.698;2023-08-06T01:48:36;7.55;;;2.20;;
66256;SDS011;53049;43.446;3.698;2023-08-06T01:51:05;6.30;;;2.22;;
66256;SDS011;53049;43.446;3.698;2023-08-06T01:53:31;4.88;;;2.03;;
66256;SDS011;53049;43.446;3.698;2023-08-06T01:56:16;4.78;;;2.08;;
66256;SDS011;53049;43.446;3.698;2023-08-06T01:58:42;6.72;;;2.10;;
66256;SDS011;53049;43.446;3.698;2023-08-06T02:01:10;4.28;;;1.85;;
66256;SDS011;53049;43.446;3.698;2023-08-06T02:03:36;7.63;;;2.45;;
66256;SDS011;53049;43.446;3.698;2023-08-06T02:06:01;5.18;;;1.85;;
66256;SDS011;53049;43.446;3.698;2023-08-06T02:08:27;6.55;;;2.08;;
66256;SDS011;53049;43.446;3.698;2023-08-06T02:10:53;4.72;;;2.30;;
66256;SDS011;53049;43.446;3.698;2023-08-06T02:13:19;4.32;;;2.00;;
66256;SDS011;53049;43.446;3.698;2023-08-06T02:15:45;4.22;;;1.90;;
66256;SDS011;53049;43.446;3.698;2023-08-06T02:18:13;4.13;;;1.67;;
66256;SDS011;53049;43.446;3.698;2023-08-06T02:20:39;6.43;;;2.03;;
66256;SDS011;53049;43.446;3.698;2023-08-06T02:23:05;5.05;;;2.10;;
66256;SDS011;53049;43.446;3.698;2023-08-06T02:25:31;3.92;;;1.90;;
66256;SDS011;53049;43.446;3.698;2023-08-06T02:27:57;7.32;;;2.10;;
66256;SDS011;53049;43.446;3.698;2023-08-06T02:30:22;4.68;;;1.80;;
66256;SDS011;53049;43.446;3.698;2023-08-06T02:32:48;5.85;;;2.13;;
66256;SDS011;53049;43.446;3.698;2023-08-06T02:35:14;7.00;;;2.05;;
66256;SDS011;53049;43.446;3.698;2023-08-06T02:37:40;4.32;;;2.10;;
66256;SDS011;53049;43.446;3.698;2023-08-06T02:40:06;2.97;;;1.58;;
66256;SDS011;53049;43.446;3.698;2023-08-06T02:42:32;3.95;;;1.63;;
66256;SDS011;53049;43.446;3.698;2023-08-06T02:45:00;5.32;;;1.95;;
66256;SDS011;53049;43.446;3.698;2023-08-06T02:47:26;6.57;;;1.95;;
66256;SDS011;53049;43.446;3.698;2023-08-06T02:49:52;5.68;;;1.80;;
66256;SDS011;53049;43.446;3.698;2023-08-06T02:52:18;7.22;;;2.13;;
66256;SDS011;53049;43.446;3.698;2023-08-06T02:54:43;5.80;;;1.95;;
66256;SDS011;53049;43.446;3.698;2023-08-06T02:57:09;6.07;;;1.98;;
66256;SDS011;53049;43.446;3.698;2023-08-06T02:59:34;6.35;;;1.95;;
66256;SDS011;53049;43.446;3.698;2023-08-06T03:02:00;4.20;;;1.98;;
66256;SDS011;53049;43.446;3.698;2023-08-06T03:04:26;5.93;;;2.05;;
66256;SDS011;53049;43.446;3.698;2023-08-06T03:06:52;6.32;;;2.20;;
66256;SDS011;53049;43.446;3.698;2023-08-06T03:09:18;7.07;;;2.35;;
66256;SDS011;53049;43.446;3.698;2023-08-06T03:11:43;6.93;;;2.45;;
66256;SDS011;53049;43.446;3.698;2023-08-06T03:14:09;7.65;;;2.08;;
66256;SDS011;53049;43.446;3.698;2023-08-06T03:16:35;12.57;;;2.92;;
66256;SDS011;53049;43.446;3.698;2023-08-06T03:19:01;5.93;;;1.95;;
66256;SDS011;53049;43.446;3.698;2023-08-06T03:21:26;8.90;;;2.22;;
66256;SDS011;53049;43.446;3.698;2023-08-06T03:23:52;7.55;;;2.10;;
66256;SDS011;53049;43.446;3.698;2023-08-06T03:26:18;7.43;;;2.20;;
66256;SDS011;53049;43.446;3.698;2023-08-06T03:28:43;13.63;;;2.90;;
66256;SDS011;53049;43.446;3.698;2023-08-06T03:31:09;6.05;;;2.10;;
66256;SDS011;53049;43.446;3.698;2023-08-06T03:33:35;6.28;;;2.10;;
66256;SDS011;53049;43.446;3.698;2023-08-06T03:36:01;7.18;;;2.30;;
66256;SDS011;53049;43.446;3.698;2023-08-06T03:38:27;7.93;;;2.30;;
66256;SDS011;53049;43.446;3.698;2023-08-06T03:40:53;7.28;;;2.22;;
66256;SDS011;53049;43.446;3.698;2023-08-06T03:43:18;7.45;;;2.08;;
66256;SDS011;53049;43.446;3.698;2023-08-06T03:45:44;10.10;;;2.45;;
66256;SDS011;53049;43.446;3.698;2023-08-06T03:48:10;7.30;;;2.55;;
66256;SDS011;53049;43.446;3.698;2023-08-06T03:50:35;10.00;;;2.60;;
66256;SDS011;53049;43.446;3.698;2023-08-06T03:53:01;7.80;;;2.28;;
66256;SDS011;53049;43.446;3.698;2023-08-06T03:55:27;8.52;;;2.20;;
66256;SDS011;53049;43.446;3.698;2023-08-06T03:57:52;8.40;;;2.17;;
66256;SDS011;53049;43.446;3.698;2023-08-06T04:00:19;8.98;;;2.22;;
66256;SDS011;53049;43.446;3.698;2023-08-06T04:02:45;7.13;;;2.20;;
66256;SDS011;53049;43.446;3.698;2023-08-06T04:05:11;9.20;;;2.08;;
66256;SDS011;53049;43.446;3.698;2023-08-06T04:07:36;8.35;;;2.30;;
66256;SDS011;53049;43.446;3.698;2023-08-06T04:10:03;6.72;;;2.42;;
66256;SDS011;53049;43.446;3.698;2023-08-06T04:12:29;5.30;;;2.08;;
66256;SDS011;53049;43.446;3.698;2023-08-06T04:14:57;9.52;;;2.85;;
66256;SDS011;53049;43.446;3.698;2023-08-06T04:17:23;8.05;;;2.78;;
66256;SDS011;53049;43.446;3.698;2023-08-06T04:19:50;6.65;;;2.00;;
66256;SDS011;53049;43.446;3.698;2023-08-06T04:22:17;8.45;;;2.33;;
66256;SDS011;53049;43.446;3.698;2023-08-06T04:24:43;10.02;;;2.83;;
66256;SDS011;53049;43.446;3.698;2023-08-06T04:27:09;8.52;;;2.17;;
66256;SDS011;53049;43.446;3.698;2023-08-06T04:29:36;5.95;;;2.00;;
66256;SDS011;53049;43.446;3.698;2023-08-06T04:32:01;6.03;;;2.00;;
66256;SDS011;53049;43.446;3.698;2023-08-06T04:34:28;5.90;;;2.00;;
66256;SDS011;53049;43.446;3.698;2023-08-06T04:36:54;7.20;;;2.42;;
66256;SDS011;53049;43.446;3.698;2023-08-06T04:39:20;8.25;;;2.30;;
66256;SDS011;53049;43.446;3.698;2023-08-06T04:41:45;7.70;;;2.58;;
66256;SDS011;53049;43.446;3.698;2023-08-06T04:44:11;8.68;;;2.20;;
66256;SDS011;53049;43.446;3.698;2023-08-06T04:46:36;10.30;;;2.47;;
66256;SDS011;53049;43.446;3.698;2023-08-06T04:49:02;7.68;;;2.22;;
66256;SDS011;53049;43.446;3.698;2023-08-06T04:51:28;6.30;;;2.03;;
66256;SDS011;53049;43.446;3.698;2023-08-06T04:53:53;7.40;;;2.17;;
66256;SDS011;53049;43.446;3.698;2023-08-06T04:56:19;8.23;;;2.40;;
66256;SDS011;53049;43.446;3.698;2023-08-06T04:58:44;7.70;;;2.05;;
66256;SDS011;53049;43.446;3.698;2023-08-06T05:01:10;7.32;;;2.25;;
66256;SDS011;53049;43.446;3.698;2023-08-06T05:03:36;6.32;;;1.95;;
66256;SDS011;53049;43.446;3.698;2023-08-06T05:06:01;5.07;;;2.08;;
66256;SDS011;53049;43.446;3.698;2023-08-06T05:08:27;11.05;;;2.67;;
66256;SDS011;53049;43.446;3.698;2023-08-06T05:10:52;5.18;;;2.13;;
66256;SDS011;53049;43.446;3.698;2023-08-06T05:13:18;8.00;;;2.03;;
66256;SDS011;53049;43.446;3.698;2023-08-06T05:15:44;8.48;;;2.30;;
66256;SDS011;53049;43.446;3.698;2023-08-06T05:18:11;6.85;;;2.65;;
66256;SDS011;53049;43.446;3.698;2023-08-06T05:20:38;9.75;;;2.30;;
66256;SDS011;53049;43.446;3.698;2023-08-06T05:23:04;7.47;;;2.10;;
66256;SDS011;53049;43.446;3.698;2023-08-06T05:25:30;9.48;;;2.28;;
66256;SDS011;53049;43.446;3.698;2023-08-06T05:27:56;6.60;;;2.10;;
66256;SDS011;53049;43.446;3.698;2023-08-06T05:30:21;20.55;;;2.75;;
66256;SDS011;53049;43.446;3.698;2023-08-06T05:32:47;9.73;;;2.20;;
66256;SDS011;53049;43.446;3.698;2023-08-06T05:35:13;7.93;;;1.90;;
66256;SDS011;53049;43.446;3.698;2023-08-06T05:37:41;7.53;;;1.90;;
66256;SDS011;53049;43.446;3.698;2023-08-06T05:40:07;6.90;;;1.90;;
66256;SDS011;53049;43.446;3.698;2023-08-06T05:42:33;6.97;;;1.80;;
66256;SDS011;53049;43.446;3.698;2023-08-06T05:44:58;7.90;;;2.10;;
66256;SDS011;53049;43.446;3.698;2023-08-06T05:47:24;8.55;;;2.28;;
66256;SDS011;53049;43.446;3.698;2023-08-06T05:49:50;9.05;;;2.40;;
66256;SDS011;53049;43.446;3.698;2023-08-06T05:52:15;10.20;;;2.72;;
66256;SDS011;53049;43.446;3.698;2023-08-06T05:54:41;8.77;;;2.25;;
66256;SDS011;53049;43.446;3.698;2023-08-06T05:57:08;7.80;;;2.55;;
66256;SDS011;53049;43.446;3.698;2023-08-06T05:59:36;7.07;;;2.38;;
66256;SDS011;53049;43.446;3.698;2023-08-06T06:02:03;10.57;;;2.60;;
66256;SDS011;53049;43.446;3.698;2023-08-06T06:04:29;10.43;;;2.97;;
66256;SDS011;53049;43.446;3.698;2023-08-06T06:06:59;7.20;;;2.00;;
66256;SDS011;53049;43.446;3.698;2023-08-06T06:09:25;9.15;;;2.50;;
66256;SDS011;53049;43.446;3.698;2023-08-06T06:11:52;10.50;;;2.40;;
66256;SDS011;53049;43.446;3.698;2023-08-06T06:14:17;8.60;;;2.30;;
66256;SDS011;53049;43.446;3.698;2023-08-06T06:16:43;10.68;;;2.45;;
66256;SDS011;53049;43.446;3.698;2023-08-06T06:19:09;13.38;;;2.42;;
66256;SDS011;53049;43.446;3.698;2023-08-06T06:21:36;8.35;;;2.30;;
66256;SDS011;53049;43.446;3.698;2023-08-06T06:24:03;10.00;;;2.42;;
66256;SDS011;53049;43.446;3.698;2023-08-06T06:26:29;9.77;;;2.60;;
66256;SDS011;53049;43.446;3.698;2023-08-06T06:28:58;10.57;;;2.58;;
66256;SDS011;53049;43.446;3.698;2023-08-06T06:31:24;8.95;;;2.15;;
66256;SDS011;53049;43.446;3.698;2023-08-06T06:33:50;8.60;;;2.30;;
66256;SDS011;53049;43.446;3.698;2023-08-06T06:36:19;9.30;;;3.08;;
66256;SDS011;53049;43.446;3.698;2023-08-06T06:38:45;8.07;;;2.40;;
66256;SDS011;53049;43.446;3.698;2023-08-06T06:41:11;9.70;;;2.90;;
66256;SDS011;53049;43.446;3.698;2023-08-06T06:43:36;11.68;;;3.03;;
66256;SDS011;53049;43.446;3.698;2023-08-06T06:46:03;11.52;;;2.22;;
66256;SDS011;53049;43.446;3.698;2023-08-06T06:48:31;5.80;;;2.28;;
66256;SDS011;53049;43.446;3.698;2023-08-06T06:50:57;9.85;;;2.80;;
66256;SDS011;53049;43.446;3.698;2023-08-06T06:53:23;14.85;;;2.85;;
66256;SDS011;53049;43.446;3.698;2023-08-06T06:55:55;18.13;;;2.70;;
66256;SDS011;53049;43.446;3.698;2023-08-06T06:58:26;8.43;;;2.15;;
66256;SDS011;53049;43.446;3.698;2023-08-06T07:00:53;9.95;;;2.72;;
66256;SDS011;53049;43.446;3.698;2023-08-06T07:03:20;10.32;;;2.30;;
66256;SDS011;53049;43.446;3.698;2023-08-06T07:05:46;10.55;;;2.55;;
66256;SDS011;53049;43.446;3.698;2023-08-06T07:08:12;9.02;;;2.25;;
66256;SDS011;53049;43.446;3.698;2023-08-06T07:10:38;9.85;;;2.35;;
66256;SDS011;53049;43.446;3.698;2023-08-06T07:13:05;13.32;;;3.03;;
66256;SDS011;53049;43.446;3.698;2023-08-06T07:15:32;14.75;;;2.47;;
66256;SDS011;53049;43.446;3.698;2023-08-06T07:17:58;9.13;;;2.35;;
66256;SDS011;53049;43.446;3.698;2023-08-06T07:20:23;6.57;;;2.25;;
66256;SDS011;53049;43.446;3.698;2023-08-06T07:22:49;10.27;;;2.13;;
66256;SDS011;53049;43.446;3.698;2023-08-06T07:25:15;11.98;;;2.45;;
66256;SDS011;53049;43.446;3.698;2023-08-06T07:27:41;12.45;;;2.22;;
66256;SDS011;53049;43.446;3.698;2023-08-06T07:30:07;23.55;;;3.45;;
66256;SDS011;53049;43.446;3.698;2023-08-06T07:32:33;10.00;;;2.55;;
66256;SDS011;53049;43.446;3.698;2023-08-06T07:35:00;9.35;;;2.92;;
66256;SDS011;53049;43.446;3.698;2023-08-06T07:37:27;7.50;;;2.42;;
66256;SDS011;53049;43.446;3.698;2023-08-06T07:39:53;11.88;;;2.67;;
66256;SDS011;53049;43.446;3.698;2023-08-06T07:42:19;12.13;;;2.88;;
66256;SDS011;53049;43.446;3.698;2023-08-06T07:44:55;7.05;;;2.28;;
66256;SDS011;53049;43.446;3.698;2023-08-06T07:47:21;9.80;;;2.85;;
66256;SDS011;53049;43.446;3.698;2023-08-06T07:49:48;10.73;;;2.47;;
66256;SDS011;53049;43.446;3.698;2023-08-06T07:52:14;9.57;;;2.72;;
66256;SDS011;53049;43.446;3.698;2023-08-06T07:54:39;10.95;;;2.45;;
66256;SDS011;53049;43.446;3.698;2023-08-06T07:57:05;14.38;;;2.70;;
66256;SDS011;53049;43.446;3.698;2023-08-06T07:59:34;4.97;;;2.08;;
66256;SDS011;53049;43.446;3.698;2023-08-06T08:02:00;9.57;;;2.38;;
66256;SDS011;53049;43.446;3.698;2023-08-06T08:04:31;6.32;;;2.22;;
66256;SDS011;53049;43.446;3.698;2023-08-06T08:06:59;7.72;;;2.38;;
66256;SDS011;53049;43.446;3.698;2023-08-06T08:09:26;9.75;;;2.95;;
66256;SDS011;53049;43.446;3.698;2023-08-06T08:11:52;7.22;;;2.33;;
66256;SDS011;53049;43.446;3.698;2023-08-06T08:14:18;24.58;;;3.28;;
66256;SDS011;53049;43.446;3.698;2023-08-06T08:16:43;10.88;;;2.60;;
66256;SDS011;53049;43.446;3.698;2023-08-06T08:19:09;11.43;;;2.50;;
66256;SDS011;53049;43.446;3.698;2023-08-06T08:21:36;10.23;;;2.47;;
66256;SDS011;53049;43.446;3.698;2023-08-06T08:24:03;7.82;;;2.33;;
66256;SDS011;53049;43.446;3.698;2023-08-06T08:26:30;5.32;;;2.30;;
66256;SDS011;53049;43.446;3.698;2023-08-06T08:28:56;6.22;;;2.20;;
66256;SDS011;53049;43.446;3.698;2023-08-06T08:31:22;7.40;;;2.53;;
66256;SDS011;53049;43.446;3.698;2023-08-06T08:33:49;7.38;;;2.30;;
66256;SDS011;53049;43.446;3.698;2023-08-06T08:36:14;6.90;;;2.55;;
66256;SDS011;53049;43.446;3.698;2023-08-06T08:38:40;8.15;;;2.90;;
66256;SDS011;53049;43.446;3.698;2023-08-06T08:41:06;8.15;;;2.60;;
66256;SDS011;53049;43.446;3.698;2023-08-06T08:43:34;8.65;;;2.40;;
66256;SDS011;53049;43.446;3.698;2023-08-06T08:46:01;6.28;;;2.05;;
66256;SDS011;53049;43.446;3.698;2023-08-06T08:48:29;6.22;;;2.40;;
66256;SDS011;53049;43.446;3.698;2023-08-06T08:50:55;6.30;;;1.90;;
66256;SDS011;53049;43.446;3.698;2023-08-06T08:53:21;7.10;;;2.65;;
66256;SDS011;53049;43.446;3.698;2023-08-06T08:55:53;9.40;;;2.25;;
66256;SDS011;53049;43.446;3.698;2023-08-06T08:58:19;7.40;;;2.50;;
66256;SDS011;53049;43.446;3.698;2023-08-06T09:00:45;11.68;;;2.30;;
66256;SDS011;53049;43.446;3.698;2023-08-06T09:03:13;10.10;;;2.35;;
66256;SDS011;53049;43.446;3.698;2023-08-06T09:05:40;10.00;;;2.08;;
66256;SDS011;53049;43.446;3.698;2023-08-06T09:08:08;6.82;;;2.22;;
66256;SDS011;53049;43.446;3.698;2023-08-06T09:10:36;9.13;;;2.08;;
66256;SDS011;53049;43.446;3.698;2023-08-06T09:13:03;6.53;;;2.22;;
66256;SDS011;53049;43.446;3.698;2023-08-06T09:15:37;6.50;;;2.30;;
66256;SDS011;53049;43.446;3.698;2023-08-06T09:18:08;6.90;;;1.90;;
66256;SDS011;53049;43.446;3.698;2023-08-06T09:20:37;8.50;;;2.00;;
66256;SDS011;53049;43.446;3.698;2023-08-06T09:23:09;7.03;;;1.90;;
66256;SDS011;53049;43.446;3.698;2023-08-06T09:25:37;7.18;;;2.20;;
66256;SDS011;53049;43.446;3.698;2023-08-06T09:28:07;17.98;;;2.63;;
66256;SDS011;53049;43.446;3.698;2023-08-06T09:30:36;10.40;;;2.22;;
66256;SDS011;53049;43.446;3.698;2023-08-06T09:33:03;5.60;;;2.00;;
66256;SDS011;53049;43.446;3.698;2023-08-06T09:35:33;7.63;;;2.08;;
66256;SDS011;53049;43.446;3.698;2023-08-06T09:38:05;6.40;;;2.00;;
66256;SDS011;53049;43.446;3.698;2023-08-06T09:40:32;5.65;;;1.67;;
66256;SDS011;53049;43.446;3.698;2023-08-06T09:42:58;4.80;;;1.80;;
66256;SDS011;53049;43.446;3.698;2023-08-06T09:45:34;8.45;;;2.20;;
66256;SDS011;53049;43.446;3.698;2023-08-06T09:48:04;4.68;;;1.75;;
66256;SDS011;53049;43.446;3.698;2023-08-06T09:50:37;5.65;;;1.63;;
66256;SDS011;53049;43.446;3.698;2023-08-06T09:53:04;7.82;;;1.92;;
66256;SDS011;53049;43.446;3.698;2023-08-06T09:55:31;6.97;;;2.05;;
66256;SDS011;53049;43.446;3.698;2023-08-06T09:57:58;4.63;;;1.95;;
66256;SDS011;53049;43.446;3.698;2023-08-06T10:00:24;10.02;;;2.10;;
66256;SDS011;53049;43.446;3.698;2023-08-06T10:02:51;10.63;;;2.30;;
66256;SDS011;53049;43.446;3.698;2023-08-06T10:05:19;6.90;;;1.90;;
66256;SDS011;53049;43.446;3.698;2023-08-06T10:07:47;7.13;;;2.22;;
66256;SDS011;53049;43.446;3.698;2023-08-06T10:10:14;7.55;;;1.95;;
66256;SDS011;53049;43.446;3.698;2023-08-06T10:12:40;5.43;;;1.95;;
66256;SDS011;53049;43.446;3.698;2023-08-06T10:15:12;6.72;;;1.83;;
66256;SDS011;53049;43.446;3.698;2023-08-06T10:17:41;5.35;;;2.03;;
66256;SDS011;53049;43.446;3.698;2023-08-06T10:20:08;6.93;;;2.03;;
66256;SDS011;53049;43.446;3.698;2023-08-06T10:22:35;11.38;;;2.40;;
66256;SDS011;53049;43.446;3.698;2023-08-06T10:25:01;7.38;;;1.70;;
66256;SDS011;53049;43.446;3.698;2023-08-06T10:32:47;3.95;;;1.80;;
66256;SDS011;53049;43.446;3.698;2023-08-06T10:35:36;5.13;;;1.80;;
66256;SDS011;53049;43.446;3.698;2023-08-06T10:38:16;4.45;;;1.70;;
66256;SDS011;53049;43.446;3.698;2023-08-06T10:45:51;7.28;;;1.83;;
66256;SDS011;53049;43.446;3.698;2023-08-06T10:48:38;5.82;;;1.83;;
66256;SDS011;53049;43.446;3.698;2023-08-06T10:51:07;8.82;;;2.03;;
66256;SDS011;53049;43.446;3.698;2023-08-06T10:53:33;8.45;;;1.70;;
66256;SDS011;53049;43.446;3.698;2023-08-06T10:55:59;5.10;;;1.65;;
66256;SDS011;53049;43.446;3.698;2023-08-06T10:58:25;4.45;;;1.70;;
66256;SDS011;53049;43.446;3.698;2023-08-06T11:00:55;4.75;;;1.70;;
66256;SDS011;53049;43.446;3.698;2023-08-06T11:03:21;6.47;;;1.90;;
66256;SDS011;53049;43.446;3.698;2023-08-06T11:05:48;5.03;;;1.85;;
66256;SDS011;53049;43.446;3.698;2023-08-06T11:08:27;4.32;;;1.63;;
66256;SDS011;53049;43.446;3.698;2023-08-06T11:10:54;5.72;;;1.50;;
66256;SDS011;53049;43.446;3.698;2023-08-06T11:13:20;7.88;;;1.80;;
66256;SDS011;53049;43.446;3.698;2023-08-06T11:15:46;6.35;;;2.00;;
66256;SDS011;53049;43.446;3.698;2023-08-06T11:18:12;8.25;;;2.40;;
66256;SDS011;53049;43.446;3.698;2023-08-06T11:20:38;4.80;;;1.67;;
66256;SDS011;53049;43.446;3.698;2023-08-06T11:23:05;5.68;;;1.88;;
66256;SDS011;53049;43.446;3.698;2023-08-06T11:25:31;6.28;;;1.90;;
66256;SDS011;53049;43.446;3.698;2023-08-06T11:28:01;4.40;;;1.50;;
66256;SDS011;53049;43.446;3.698;2023-08-06T11:30:26;7.80;;;2.03;;
66256;SDS011;53049;43.446;3.698;2023-08-06T11:32:52;5.18;;;1.40;;
66256;SDS011;53049;43.446;3.698;2023-08-06T11:35:18;4.30;;;1.70;;
66256;SDS011;53049;43.446;3.698;2023-08-06T11:37:44;5.43;;;1.90;;
66256;SDS011;53049;43.446;3.698;2023-08-06T11:40:11;6.75;;;1.95;;
66256;SDS011;53049;43.446;3.698;2023-08-06T11:42:37;5.78;;;1.70;;
66256;SDS011;53049;43.446;3.698;2023-08-06T11:45:03;4.45;;;1.60;;
66256;SDS011;53049;43.446;3.698;2023-08-06T11:47:29;6.45;;;1.85;;
66256;SDS011;53049;43.446;3.698;2023-08-06T11:49:55;3.83;;;1.52;;
66256;SDS011;53049;43.446;3.698;2023-08-06T11:52:24;3.60;;;1.63;;
66256;SDS011;53049;43.446;3.698;2023-08-06T11:55:03;5.13;;;1.52;;
66256;SDS011;53049;43.446;3.698;2023-08-06T11:57:33;4.50;;;1.35;;
66256;SDS011;53049;43.446;3.698;2023-08-06T12:02:33;5.20;;;1.65;;
66256;SDS011;53049;43.446;3.698;2023-08-06T12:05:01;5.15;;;1.92;;
66256;SDS011;53049;43.446;3.698;2023-08-06T12:07:38;5.33;;;1.80;;
66256;SDS011;53049;43.446;3.698;2023-08-06T12:10:06;5.32;;;1.60;;
66256;SDS011;53049;43.446;3.698;2023-08-06T12:12:32;4.35;;;1.73;;
66256;SDS011;53049;43.446;3.698;2023-08-06T12:14:59;4.00;;;1.80;;
66256;SDS011;53049;43.446;3.698;2023-08-06T12:17:24;4.03;;;1.50;;
66256;SDS011;53049;43.446;3.698;2023-08-06T12:19:50;5.35;;;1.60;;
66256;SDS011;53049;43.446;3.698;2023-08-06T12:22:16;6.40;;;1.48;;
66256;SDS011;53049;43.446;3.698;2023-08-06T12:24:43;7.57;;;1.77;;
66256;SDS011;53049;43.446;3.698;2023-08-06T12:27:10;4.18;;;1.70;;
66256;SDS011;53049;43.446;3.698;2023-08-06T12:29:36;5.68;;;1.48;;
66256;SDS011;53049;43.446;3.698;2023-08-06T12:32:05;4.68;;;1.60;;
66256;SDS011;53049;43.446;3.698;2023-08-06T12:34:31;7.07;;;1.73;;
66256;SDS011;53049;43.446;3.698;2023-08-06T12:36:56;2.67;;;1.27;;
66256;SDS011;53049;43.446;3.698;2023-08-06T12:39:22;5.22;;;1.70;;
66256;SDS011;53049;43.446;3.698;2023-08-06T12:41:48;3.67;;;1.52;;
66256;SDS011;53049;43.446;3.698;2023-08-06T12:44:14;5.75;;;1.80;;
66256;SDS011;53049;43.446;3.698;2023-08-06T12:46:39;4.85;;;2.03;;
66256;SDS011;53049;43.446;3.698;2023-08-06T12:49:05;6.30;;;1.88;;
66256;SDS011;53049;43.446;3.698;2023-08-06T12:51:31;4.80;;;1.92;;
66256;SDS011;53049;43.446;3.698;2023-08-06T12:53:58;2.60;;;1.60;;
66256;SDS011;53049;43.446;3.698;2023-08-06T12:56:24;5.28;;;1.58;;
66256;SDS011;53049;43.446;3.698;2023-08-06T12:58:50;7.18;;;2.00;;
66256;SDS011;53049;43.446;3.698;2023-08-06T13:01:15;6.07;;;1.80;;
66256;SDS011;53049;43.446;3.698;2023-08-06T13:03:41;2.60;;;1.58;;
66256;SDS011;53049;43.446;3.698;2023-08-06T13:06:06;4.70;;;1.42;;
66256;SDS011;53049;43.446;3.698;2023-08-06T13:08:34;7.55;;;1.98;;
66256;SDS011;53049;43.446;3.698;2023-08-06T13:11:00;6.80;;;1.83;;
66256;SDS011;53049;43.446;3.698;2023-08-06T13:13:26;5.15;;;1.50;;
66256;SDS011;53049;43.446;3.698;2023-08-06T13:15:52;2.13;;;1.40;;
66256;SDS011;53049;43.446;3.698;2023-08-06T13:18:17;3.55;;;1.83;;
66256;SDS011;53049;43.446;3.698;2023-08-06T13:20:43;4.80;;;1.63;;
66256;SDS011;53049;43.446;3.698;2023-08-06T13:23:09;2.13;;;1.45;;
66256;SDS011;53049;43.446;3.698;2023-08-06T13:25:34;3.30;;;1.58;;
66256;SDS011;53049;43.446;3.698;2023-08-06T13:28:04;3.75;;;1.58;;
66256;SDS011;53049;43.446;3.698;2023-08-06T13:30:30;6.72;;;1.80;;
66256;SDS011;53049;43.446;3.698;2023-08-06T13:32:56;3.17;;;1.50;;
66256;SDS011;53049;43.446;3.698;2023-08-06T13:35:22;3.63;;;1.50;;
66256;SDS011;53049;43.446;3.698;2023-08-06T13:37:48;5.65;;;1.75;;
66256;SDS011;53049;43.446;3.698;2023-08-06T13:40:14;2.92;;;1.73;;
66256;SDS011;53049;43.446;3.698;2023-08-06T13:42:40;4.45;;;1.60;;
66256;SDS011;53049;43.446;3.698;2023-08-06T13:45:06;7.35;;;1.92;;
66256;SDS011;53049;43.446;3.698;2023-08-06T13:47:32;4.55;;;1.70;;
66256;SDS011;53049;43.446;3.698;2023-08-06T13:49:58;4.63;;;1.33;;
66256;SDS011;53049;43.446;3.698;2023-08-06T13:52:27;3.13;;;1.60;;
66256;SDS011;53049;43.446;3.698;2023-08-06T13:54:53;4.03;;;1.75;;
66256;SDS011;53049;43.446;3.698;2023-08-06T13:57:18;2.67;;;1.42;;
66256;SDS011;53049;43.446;3.698;2023-08-06T13:59:44;3.50;;;1.50;;
66256;SDS011;53049;43.446;3.698;2023-08-06T14:02:10;7.47;;;1.80;;
66256;SDS011;53049;43.446;3.698;2023-08-06T14:04:36;3.95;;;1.40;;
66256;SDS011;53049;43.446;3.698;2023-08-06T14:07:02;4.28;;;1.65;;
66256;SDS011;53049;43.446;3.698;2023-08-06T14:09:31;4.97;;;1.50;;
66256;SDS011;53049;43.446;3.698;2023-08-06T14:11:56;2.75;;;1.42;;
66256;SDS011;53049;43.446;3.698;2023-08-06T14:14:22;6.60;;;1.77;;
66256;SDS011;53049;43.446;3.698;2023-08-06T14:16:51;2.63;;;1.48;;
66256;SDS011;53049;43.446;3.698;2023-08-06T14:19:17;4.75;;;1.50;;
66256;SDS011;53049;43.446;3.698;2023-08-06T14:21:43;5.00;;;1.98;;
66256;SDS011;53049;43.446;3.698;2023-08-06T14:24:08;3.42;;;1.38;;
66256;SDS011;53049;43.446;3.698;2023-08-06T14:26:34;4.47;;;1.50;;
66256;SDS011;53049;43.446;3.698;2023-08-06T14:29:00;5.22;;;1.52;;
66256;SDS011;53049;43.446;3.698;2023-08-06T14:31:26;4.15;;;1.40;;
66256;SDS011;53049;43.446;3.698;2023-08-06T14:33:52;4.03;;;1.60;;
66256;SDS011;53049;43.446;3.698;2023-08-06T14:36:18;7.10;;;1.77;;
66256;SDS011;53049;43.446;3.698;2023-08-06T14:38:44;9.35;;;1.75;;
66256;SDS011;53049;43.446;3.698;2023-08-06T14:41:10;3.30;;;1.48;;
66256;SDS011;53049;43.446;3.698;2023-08-06T14:43:36;3.67;;;1.50;;
66256;SDS011;53049;43.446;3.698;2023-08-06T14:46:01;3.30;;;1.40;;
66256;SDS011;53049;43.446;3.698;2023-08-06T14:48:28;2.30;;;1.25;;
66256;SDS011;53049;43.446;3.698;2023-08-06T14:50:54;3.20;;;1.50;;
66256;SDS011;53049;43.446;3.698;2023-08-06T14:53:20;4.78;;;1.55;;
66256;SDS011;53049;43.446;3.698;2023-08-06T14:55:45;4.63;;;1.60;;
66256;SDS011;53049;43.446;3.698;2023-08-06T14:58:11;5.40;;;1.65;;
66256;SDS011;53049;43.446;3.698;2023-08-06T15:00:37;4.13;;;1.40;;
66256;SDS011;53049;43.446;3.698;2023-08-06T15:03:02;4.97;;;1.80;;